sensor_id;sensor_type;location;lat;lon;timestamp;pressure;altitude;pressure_sealevel;temperature;humidity
15646;BME280;7922;43.622;1.476;2023-05-11T00:02:07;100590.19;;;11.14;93.45
15646;BME280;7922;43.622;1.476;2023-05-11T00:04:32;100519.22;;;10.72;93.71
15646;BME280;7922;43.622;1.476;2023-05-11T00:06:58;100611.78;;;11.28;93.64
15646;BME280;7922;43.622;1.476;2023-05-11T00:09:23;100558.91;;;10.99;93.08
15646;BME280;7922;43.622;1.476;2023-05-11T00:11:50;100611.09;;;11.23;93.56
15646;BME280;7922;43.622;1.476;2023-05-11T00:14:16;100560.88;;;10.94;93.49
15646;BME280;7922;43.622;1.476;2023-05-11T00:16:41;100594.75;;;11.11;93.64
15646;BME280;7922;43.622;1.476;2023-05-11T00:19:06;100533.06;;;10.80;93.31
15646;BME280;7922;43.622;1.476;2023-05-11T00:21:31;100552.19;;;10.89;93.40
15646;BME280;7922;43.622;1.476;2023-05-11T00:23:57;100561.53;;;11.00;93.40
15646;BME280;7922;43.622;1.476;2023-05-11T00:26:22;100505.25;;;10.67;93.19
15646;BME280;7922;43.622;1.476;2023-05-11T00:28:47;100533.88;;;10.82;93.04
15646;BME280;7922;43.622;1.476;2023-05-11T00:31:13;100577.31;;;11.03;93.64
15646;BME280;7922;43.622;1.476;2023-05-11T00:33:38;100533.22;;;10.76;93.71
15646;BME280;7922;43.622;1.476;2023-05-11T00:36:03;100581.06;;;10.98;93.68
15646;BME280;7922;43.622;1.476;2023-05-11T00:38:29;100578.56;;;10.93;93.90
15646;BME280;7922;43.622;1.476;2023-05-11T00:40:55;100565.44;;;10.89;93.70
15646;BME280;7922;43.622;1.476;2023-05-11T00:43:20;100576.22;;;10.84;93.79
15646;BME280;7922;43.622;1.476;2023-05-11T00:45:45;100531.09;;;10.60;93.10
15646;BME280;7922;43.622;1.476;2023-05-11T00:48:11;100563.06;;;10.81;93.46
15646;BME280;7922;43.622;1.476;2023-05-11T00:50:36;100570.75;;;10.89;93.35
15646;BME280;7922;43.622;1.476;2023-05-11T00:53:02;100525.56;;;10.67;92.81
15646;BME280;7922;43.622;1.476;2023-05-11T00:55:27;100589.78;;;11.01;93.01
15646;BME280;7922;43.622;1.476;2023-05-11T00:57:53;100554.94;;;10.85;92.48
15646;BME280;7922;43.622;1.476;2023-05-11T01:00:18;100503.84;;;10.57;92.50
15646;BME280;7922;43.622;1.476;2023-05-11T01:02:44;100526.91;;;10.80;92.62
15646;BME280;7922;43.622;1.476;2023-05-11T01:05:09;100540.25;;;10.77;92.15
15646;BME280;7922;43.622;1.476;2023-05-11T01:07:59;100571.50;;;10.92;92.99
15646;BME280;7922;43.622;1.476;2023-05-11T01:10:36;100580.47;;;10.90;92.73
15646;BME280;7922;43.622;1.476;2023-05-11T01:15:33;100541.69;;;10.60;93.44
15646;BME280;7922;43.622;1.476;2023-05-11T01:20:46;100559.13;;;10.68;94.28
15646;BME280;7922;43.622;1.476;2023-05-11T01:26:44;100560.66;;;10.75;94.48
15646;BME280;7922;43.622;1.476;2023-05-11T01:31:55;100540.78;;;10.62;94.65
15646;BME280;7922;43.622;1.476;2023-05-11T01:34:25;100535.50;;;10.60;94.69
15646;BME280;7922;43.622;1.476;2023-05-11T01:36:56;100555.53;;;10.69;95.10
15646;BME280;7922;43.622;1.476;2023-05-11T01:39:29;100576.31;;;10.81;95.03
15646;BME280;7922;43.622;1.476;2023-05-11T01:41:57;100467.06;;;10.21;94.81
15646;BME280;7922;43.622;1.476;2023-05-11T01:44:29;100578.69;;;10.89;94.92
15646;BME280;7922;43.622;1.476;2023-05-11T01:46:59;100578.78;;;10.87;95.39
15646;BME280;7922;43.622;1.476;2023-05-11T01:49:25;100492.00;;;10.42;95.24
15646;BME280;7922;43.622;1.476;2023-05-11T01:51:52;100540.78;;;10.62;96.28
15646;BME280;7922;43.622;1.476;2023-05-11T01:54:19;100532.81;;;10.62;96.22
15646;BME280;7922;43.622;1.476;2023-05-11T01:56:47;100485.88;;;10.40;95.82
15646;BME280;7922;43.622;1.476;2023-05-11T01:59:15;100503.44;;;10.43;96.38
15646;BME280;7922;43.622;1.476;2023-05-11T02:01:41;100492.34;;;10.31;96.70
15646;BME280;7922;43.622;1.476;2023-05-11T02:04:08;100488.00;;;10.29;96.77
15646;BME280;7922;43.622;1.476;2023-05-11T02:06:35;100495.03;;;10.30;96.98
15646;BME280;7922;43.622;1.476;2023-05-11T02:09:02;100553.91;;;10.65;97.26
15646;BME280;7922;43.622;1.476;2023-05-11T02:11:28;100484.84;;;10.16;97.91
15646;BME280;7922;43.622;1.476;2023-05-11T02:13:55;100550.03;;;10.48;97.92
15646;BME280;7922;43.622;1.476;2023-05-11T02:16:23;100517.22;;;10.26;98.54
15646;BME280;7922;43.622;1.476;2023-05-11T02:18:48;100537.22;;;10.36;98.98
15646;BME280;7922;43.622;1.476;2023-05-11T02:21:15;100551.06;;;10.44;98.97
15646;BME280;7922;43.622;1.476;2023-05-11T02:23:41;100528.69;;;10.26;98.87
15646;BME280;7922;43.622;1.476;2023-05-11T02:26:08;100461.88;;;9.90;99.84
15646;BME280;7922;43.622;1.476;2023-05-11T02:28:34;100543.56;;;10.30;100.00
15646;BME280;7922;43.622;1.476;2023-05-11T02:31:04;100476.84;;;9.91;99.97
15646;BME280;7922;43.622;1.476;2023-05-11T02:33:33;100483.81;;;9.94;99.69
15646;BME280;7922;43.622;1.476;2023-05-11T02:36:01;100511.56;;;10.08;99.96
15646;BME280;7922;43.622;1.476;2023-05-11T02:38:32;100537.63;;;10.22;100.00
15646;BME280;7922;43.622;1.476;2023-05-11T02:41:01;100467.56;;;9.78;100.00
15646;BME280;7922;43.622;1.476;2023-05-11T02:43:34;100455.44;;;9.71;100.00
15646;BME280;7922;43.622;1.476;2023-05-11T02:46:06;100467.56;;;9.78;100.00
15646;BME280;7922;43.622;1.476;2023-05-11T02:48:41;100524.63;;;10.15;100.00
15646;BME280;7922;43.622;1.476;2023-05-11T02:51:09;100516.97;;;10.05;100.00
15646;BME280;7922;43.622;1.476;2023-05-11T02:53:35;100494.03;;;10.06;100.00
15646;BME280;7922;43.622;1.476;2023-05-11T02:56:02;100509.84;;;10.07;100.00
15646;BME280;7922;43.622;1.476;2023-05-11T02:58:28;100511.38;;;10.15;100.00
15646;BME280;7922;43.622;1.476;2023-05-11T03:00:54;100463.56;;;9.93;99.74
15646;BME280;7922;43.622;1.476;2023-05-11T03:03:19;100438.50;;;9.76;99.68
15646;BME280;7922;43.622;1.476;2023-05-11T03:05:44;100445.47;;;9.79;99.85
15646;BME280;7922;43.622;1.476;2023-05-11T03:08:10;100455.72;;;9.89;99.95
15646;BME280;7922;43.622;1.476;2023-05-11T03:10:35;100476.50;;;10.02;99.22
15646;BME280;7922;43.622;1.476;2023-05-11T03:13:01;100428.75;;;9.78;98.74
15646;BME280;7922;43.622;1.476;2023-05-11T03:15:27;100447.09;;;9.83;99.29
15646;BME280;7922;43.622;1.476;2023-05-11T03:17:54;100436.69;;;9.78;99.23
15646;BME280;7922;43.622;1.476;2023-05-11T03:20:20;100446.19;;;9.84;99.49
15646;BME280;7922;43.622;1.476;2023-05-11T03:22:46;100434.22;;;9.72;99.38
15646;BME280;7922;43.622;1.476;2023-05-11T03:25:13;100466.38;;;9.88;100.00
15646;BME280;7922;43.622;1.476;2023-05-11T03:27:40;100498.75;;;9.96;99.87
15646;BME280;7922;43.622;1.476;2023-05-11T03:30:07;100456.22;;;9.74;100.00
15646;BME280;7922;43.622;1.476;2023-05-11T03:32:33;100441.47;;;9.65;100.00
15646;BME280;7922;43.622;1.476;2023-05-11T03:34:59;100514.31;;;10.05;100.00
15646;BME280;7922;43.622;1.476;2023-05-11T03:37:25;100485.06;;;9.82;100.00
15646;BME280;7922;43.622;1.476;2023-05-11T03:39:54;100442.66;;;9.57;100.00
15646;BME280;7922;43.622;1.476;2023-05-11T03:42:21;100421.66;;;9.51;100.00
15646;BME280;7922;43.622;1.476;2023-05-11T03:44:48;100434.72;;;9.57;100.00
15646;BME280;7922;43.622;1.476;2023-05-11T03:47:16;100506.63;;;9.98;100.00
15646;BME280;7922;43.622;1.476;2023-05-11T03:49:42;100451.28;;;9.62;100.00
15646;BME280;7922;43.622;1.476;2023-05-11T03:52:08;100511.81;;;10.01;100.00
15646;BME280;7922;43.622;1.476;2023-05-11T03:54:35;100448.75;;;9.59;100.00
15646;BME280;7922;43.622;1.476;2023-05-11T03:57:00;100480.78;;;9.78;100.00
15646;BME280;7922;43.622;1.476;2023-05-11T03:59:26;100489.53;;;9.80;100.00
15646;BME280;7922;43.622;1.476;2023-05-11T04:01:52;100425.47;;;9.42;100.00
15646;BME280;7922;43.622;1.476;2023-05-11T04:04:26;100479.25;;;9.71;100.00
15646;BME280;7922;43.622;1.476;2023-05-11T04:06:52;100424.63;;;9.42;100.00
15646;BME280;7922;43.622;1.476;2023-05-11T04:09:17;100473.91;;;9.72;100.00
15646;BME280;7922;43.622;1.476;2023-05-11T04:11:42;100442.72;;;9.55;100.00
15646;BME280;7922;43.622;1.476;2023-05-11T04:14:08;100497.22;;;9.87;100.00
15646;BME280;7922;43.622;1.476;2023-05-11T04:16:33;100426.25;;;9.46;100.00
15646;BME280;7922;43.622;1.476;2023-05-11T04:18:58;100482.53;;;9.79;100.00
15646;BME280;7922;43.622;1.476;2023-05-11T04:21:23;100502.50;;;9.89;100.00
15646;BME280;7922;43.622;1.476;2023-05-11T04:23:49;100466.88;;;9.71;100.00
15646;BME280;7922;43.622;1.476;2023-05-11T04:26:14;100458.28;;;9.64;100.00
15646;BME280;7922;43.622;1.476;2023-05-11T04:28:39;100467.81;;;9.70;100.00
15646;BME280;7922;43.622;1.476;2023-05-11T04:31:04;100423.44;;;9.50;100.00
15646;BME280;7922;43.622;1.476;2023-05-11T04:33:30;100406.09;;;9.42;100.00
15646;BME280;7922;43.622;1.476;2023-05-11T04:35:55;100405.25;;;9.41;100.00
15646;BME280;7922;43.622;1.476;2023-05-11T04:38:21;100479.88;;;9.79;100.00
15646;BME280;7922;43.622;1.476;2023-05-11T04:40:47;100488.34;;;9.90;100.00
15646;BME280;7922;43.622;1.476;2023-05-11T04:43:16;100425.09;;;9.54;100.00
15646;BME280;7922;43.622;1.476;2023-05-11T04:45:46;100404.94;;;9.50;100.00
15646;BME280;7922;43.622;1.476;2023-05-11T04:48:12;100423.09;;;9.62;100.00
15646;BME280;7922;43.622;1.476;2023-05-11T04:50:37;100481.69;;;10.05;100.00
15646;BME280;7922;43.622;1.476;2023-05-11T04:53:02;100465.38;;;9.91;100.00
15646;BME280;7922;43.622;1.476;2023-05-11T04:55:28;100500.97;;;10.10;100.00
15646;BME280;7922;43.622;1.476;2023-05-11T04:57:53;100428.69;;;9.80;100.00
15646;BME280;7922;43.622;1.476;2023-05-11T05:00:18;100468.25;;;10.11;99.86
15646;BME280;7922;43.622;1.476;2023-05-11T05:02:44;100468.19;;;10.12;99.52
15646;BME280;7922;43.622;1.476;2023-05-11T05:05:09;100482.72;;;10.29;98.92
15646;BME280;7922;43.622;1.476;2023-05-11T05:07:34;100466.81;;;10.29;99.08
15646;BME280;7922;43.622;1.476;2023-05-11T05:10:00;100471.19;;;10.30;97.85
15646;BME280;7922;43.622;1.476;2023-05-11T05:12:25;100485.66;;;10.46;97.74
15646;BME280;7922;43.622;1.476;2023-05-11T05:14:50;100422.31;;;10.13;97.60
15646;BME280;7922;43.622;1.476;2023-05-11T05:17:15;100428.22;;;10.20;96.85
15646;BME280;7922;43.622;1.476;2023-05-11T05:19:41;100468.09;;;10.44;96.69
15646;BME280;7922;43.622;1.476;2023-05-11T05:22:06;100469.66;;;10.49;96.58
15646;BME280;7922;43.622;1.476;2023-05-11T05:24:31;100487.63;;;10.66;96.15
15646;BME280;7922;43.622;1.476;2023-05-11T05:26:57;100440.84;;;10.40;95.79
15646;BME280;7922;43.622;1.476;2023-05-11T05:29:22;100411.88;;;10.35;95.65
15646;BME280;7922;43.622;1.476;2023-05-11T05:31:47;100455.94;;;10.63;95.02
15646;BME280;7922;43.622;1.476;2023-05-11T05:34:13;100482.69;;;10.80;95.17
15646;BME280;7922;43.622;1.476;2023-05-11T05:36:38;100418.84;;;10.63;94.44
15646;BME280;7922;43.622;1.476;2023-05-11T05:39:04;100433.97;;;10.84;94.08
15646;BME280;7922;43.622;1.476;2023-05-11T05:41:29;100452.19;;;10.94;93.40
15646;BME280;7922;43.622;1.476;2023-05-11T05:43:54;100446.16;;;10.90;93.54
15646;BME280;7922;43.622;1.476;2023-05-11T05:46:19;100421.56;;;10.85;92.81
15646;BME280;7922;43.622;1.476;2023-05-11T05:48:45;100469.03;;;11.16;92.88
15646;BME280;7922;43.622;1.476;2023-05-11T05:51:10;100484.28;;;11.11;93.69
15646;BME280;7922;43.622;1.476;2023-05-11T05:53:35;100479.75;;;11.13;92.76
15646;BME280;7922;43.622;1.476;2023-05-11T05:56:01;100443.44;;;10.92;92.82
15646;BME280;7922;43.622;1.476;2023-05-11T05:58:26;100493.59;;;11.21;92.74
15646;BME280;7922;43.622;1.476;2023-05-11T06:00:51;100476.41;;;11.31;93.00
15646;BME280;7922;43.622;1.476;2023-05-11T06:03:16;100507.91;;;11.64;91.59
15646;BME280;7922;43.622;1.476;2023-05-11T06:05:42;100510.56;;;11.64;91.28
15646;BME280;7922;43.622;1.476;2023-05-11T06:08:07;100415.59;;;11.27;92.15
15646;BME280;7922;43.622;1.476;2023-05-11T06:10:32;100487.66;;;11.85;90.59
15646;BME280;7922;43.622;1.476;2023-05-11T06:12:57;100484.03;;;11.88;90.64
15646;BME280;7922;43.622;1.476;2023-05-11T06:15:23;100473.53;;;11.83;89.86
15646;BME280;7922;43.622;1.476;2023-05-11T06:17:48;100467.47;;;11.79;90.41
15646;BME280;7922;43.622;1.476;2023-05-11T06:20:13;100472.06;;;11.76;90.58
15646;BME280;7922;43.622;1.476;2023-05-11T06:22:39;100422.78;;;11.92;88.69
15646;BME280;7922;43.622;1.476;2023-05-11T06:25:04;100481.88;;;12.40;87.73
15646;BME280;7922;43.622;1.476;2023-05-11T06:27:30;100489.44;;;12.28;88.10
15646;BME280;7922;43.622;1.476;2023-05-11T06:29:55;100490.66;;;12.20;88.34
15646;BME280;7922;43.622;1.476;2023-05-11T06:32:21;100479.56;;;12.32;87.67
15646;BME280;7922;43.622;1.476;2023-05-11T06:34:46;100445.84;;;11.90;88.62
15646;BME280;7922;43.622;1.476;2023-05-11T06:37:11;100451.84;;;11.95;88.26
15646;BME280;7922;43.622;1.476;2023-05-11T06:39:36;100435.50;;;11.84;88.52
15646;BME280;7922;43.622;1.476;2023-05-11T06:42:03;100477.28;;;12.01;90.04
15646;BME280;7922;43.622;1.476;2023-05-11T06:44:28;100452.53;;;12.00;89.37
15646;BME280;7922;43.622;1.476;2023-05-11T06:46:53;100479.06;;;12.00;88.92
15646;BME280;7922;43.622;1.476;2023-05-11T06:49:18;100484.03;;;11.88;89.34
15646;BME280;7922;43.622;1.476;2023-05-11T06:51:44;100496.13;;;12.17;89.71
15646;BME280;7922;43.622;1.476;2023-05-11T06:54:09;100464.47;;;12.33;88.55
15646;BME280;7922;43.622;1.476;2023-05-11T06:56:34;100455.25;;;12.41;85.60
15646;BME280;7922;43.622;1.476;2023-05-11T06:58:59;100422.44;;;12.22;85.46
15646;BME280;7922;43.622;1.476;2023-05-11T07:01:25;100461.97;;;12.70;85.57
15646;BME280;7922;43.622;1.476;2023-05-11T07:03:53;100493.63;;;12.97;84.03
15646;BME280;7922;43.622;1.476;2023-05-11T07:06:18;100474.06;;;12.98;82.90
15646;BME280;7922;43.622;1.476;2023-05-11T07:08:44;100480.66;;;12.89;83.13
15646;BME280;7922;43.622;1.476;2023-05-11T07:11:09;100478.97;;;13.07;83.05
15646;BME280;7922;43.622;1.476;2023-05-11T07:13:34;100483.56;;;13.04;83.14
15646;BME280;7922;43.622;1.476;2023-05-11T07:16:00;100414.16;;;12.50;84.60
15646;BME280;7922;43.622;1.476;2023-05-11T07:18:25;100429.75;;;12.58;84.42
15646;BME280;7922;43.622;1.476;2023-05-11T07:20:51;100420.16;;;12.74;82.90
15646;BME280;7922;43.622;1.476;2023-05-11T07:23:16;100471.78;;;13.30;82.28
15646;BME280;7922;43.622;1.476;2023-05-11T07:25:42;100486.72;;;13.89;79.10
15646;BME280;7922;43.622;1.476;2023-05-11T07:28:07;100477.34;;;13.63;79.65
15646;BME280;7922;43.622;1.476;2023-05-11T07:30:32;100477.69;;;13.74;80.59
15646;BME280;7922;43.622;1.476;2023-05-11T07:32:58;100462.31;;;13.62;80.86
15646;BME280;7922;43.622;1.476;2023-05-11T07:35:23;100418.50;;;13.86;79.26
15646;BME280;7922;43.622;1.476;2023-05-11T07:37:48;100476.38;;;14.19;79.02
15646;BME280;7922;43.622;1.476;2023-05-11T07:40:14;100480.47;;;13.71;80.02
15646;BME280;7922;43.622;1.476;2023-05-11T07:42:39;100400.94;;;13.27;78.90
15646;BME280;7922;43.622;1.476;2023-05-11T07:45:05;100415.50;;;13.18;79.68
15646;BME280;7922;43.622;1.476;2023-05-11T07:47:30;100394.97;;;12.83;80.13
15646;BME280;7922;43.622;1.476;2023-05-11T07:49:55;100484.28;;;13.46;79.51
15646;BME280;7922;43.622;1.476;2023-05-11T07:52:20;100459.25;;;13.51;79.94
15646;BME280;7922;43.622;1.476;2023-05-11T07:54:46;100464.03;;;13.63;79.04
15646;BME280;7922;43.622;1.476;2023-05-11T07:57:11;100403.28;;;13.71;77.10
15646;BME280;7922;43.622;1.476;2023-05-11T07:59:36;100403.22;;;13.90;76.41
15646;BME280;7922;43.622;1.476;2023-05-11T08:02:04;100448.56;;;14.25;75.68
15646;BME280;7922;43.622;1.476;2023-05-11T08:04:29;100450.34;;;14.60;74.38
15646;BME280;7922;43.622;1.476;2023-05-11T08:06:54;100406.34;;;14.69;72.19
15646;BME280;7922;43.622;1.476;2023-05-11T08:09:21;100380.38;;;14.73;70.22
15646;BME280;7922;43.622;1.476;2023-05-11T08:11:46;100398.22;;;13.84;71.38
15646;BME280;7922;43.622;1.476;2023-05-11T08:14:11;100449.72;;;14.19;72.67
15646;BME280;7922;43.622;1.476;2023-05-11T08:16:36;100432.59;;;14.77;70.27
15646;BME280;7922;43.622;1.476;2023-05-11T08:19:02;100435.66;;;14.86;70.61
15646;BME280;7922;43.622;1.476;2023-05-11T08:21:27;100423.97;;;14.89;70.91
15646;BME280;7922;43.622;1.476;2023-05-11T08:23:52;100421.38;;;14.35;69.97
15646;BME280;7922;43.622;1.476;2023-05-11T08:26:18;100372.84;;;14.46;69.40
15646;BME280;7922;43.622;1.476;2023-05-11T08:28:43;100429.16;;;15.08;69.18
15646;BME280;7922;43.622;1.476;2023-05-11T08:31:08;100405.47;;;15.67;67.14
15646;BME280;7922;43.622;1.476;2023-05-11T08:33:33;100427.25;;;15.75;65.42
15646;BME280;7922;43.622;1.476;2023-05-11T08:35:59;100417.63;;;15.07;68.40
15646;BME280;7922;43.622;1.476;2023-05-11T08:38:24;100403.88;;;13.95;70.45
15646;BME280;7922;43.622;1.476;2023-05-11T08:40:50;100442.88;;;13.60;77.13
15646;BME280;7922;43.622;1.476;2023-05-11T08:43:17;100468.19;;;13.31;79.77
15646;BME280;7922;43.622;1.476;2023-05-11T08:45:44;100469.13;;;13.09;84.71
15646;BME280;7922;43.622;1.476;2023-05-11T08:48:10;100453.16;;;13.09;86.34
15646;BME280;7922;43.622;1.476;2023-05-11T08:50:35;100402.91;;;13.03;87.13
15646;BME280;7922;43.622;1.476;2023-05-11T08:53:00;100400.22;;;13.23;87.30
15646;BME280;7922;43.622;1.476;2023-05-11T08:55:26;100398.50;;;13.41;84.79
15646;BME280;7922;43.622;1.476;2023-05-11T08:57:54;100428.53;;;13.81;85.35
15646;BME280;7922;43.622;1.476;2023-05-11T09:00:20;100369.38;;;13.75;84.33
15646;BME280;7922;43.622;1.476;2023-05-11T09:02:47;100431.28;;;14.68;82.95
15646;BME280;7922;43.622;1.476;2023-05-11T09:05:13;100412.09;;;14.95;81.91
15646;BME280;7922;43.622;1.476;2023-05-11T09:07:39;100407.91;;;14.56;80.99
15646;BME280;7922;43.622;1.476;2023-05-11T09:10:07;100437.63;;;14.65;81.85
15646;BME280;7922;43.622;1.476;2023-05-11T09:12:32;100427.81;;;14.66;82.11
15646;BME280;7922;43.622;1.476;2023-05-11T09:14:58;100380.44;;;13.84;84.08
15646;BME280;7922;43.622;1.476;2023-05-11T09:17:23;100403.72;;;13.98;82.06
15646;BME280;7922;43.622;1.476;2023-05-11T09:20:03;100359.13;;;13.84;83.20
15646;BME280;7922;43.622;1.476;2023-05-11T09:22:31;100408.13;;;14.16;82.50
15646;BME280;7922;43.622;1.476;2023-05-11T09:24:56;100376.53;;;14.09;81.78
15646;BME280;7922;43.622;1.476;2023-05-11T09:27:23;100426.00;;;14.14;79.31
15646;BME280;7922;43.622;1.476;2023-05-11T09:29:51;100399.72;;;13.89;79.20
15646;BME280;7922;43.622;1.476;2023-05-11T09:32:17;100410.25;;;14.27;78.67
15646;BME280;7922;43.622;1.476;2023-05-11T09:34:42;100378.03;;;14.49;76.96
15646;BME280;7922;43.622;1.476;2023-05-11T09:37:15;100407.84;;;14.57;76.46
15646;BME280;7922;43.622;1.476;2023-05-11T09:39:40;100403.19;;;14.78;74.76
15646;BME280;7922;43.622;1.476;2023-05-11T09:42:12;100414.91;;;15.56;69.02
15646;BME280;7922;43.622;1.476;2023-05-11T09:44:38;100352.03;;;15.82;67.27
15646;BME280;7922;43.622;1.476;2023-05-11T09:47:11;100403.88;;;15.47;69.32
15646;BME280;7922;43.622;1.476;2023-05-11T09:49:37;100398.75;;;15.44;65.38
15646;BME280;7922;43.622;1.476;2023-05-11T09:52:02;100382.88;;;15.40;70.51
15646;BME280;7922;43.622;1.476;2023-05-11T09:54:27;100335.25;;;14.85;65.68
15646;BME280;7922;43.622;1.476;2023-05-11T09:56:53;100371.19;;;14.78;66.73
15646;BME280;7922;43.622;1.476;2023-05-11T10:04:47;100394.97;;;14.99;70.31
15646;BME280;7922;43.622;1.476;2023-05-11T10:07:26;100341.34;;;14.54;69.28
15646;BME280;7922;43.622;1.476;2023-05-11T10:09:59;100376.13;;;14.34;70.99
15646;BME280;7922;43.622;1.476;2023-05-11T10:12:26;100364.47;;;14.36;69.45
15646;BME280;7922;43.622;1.476;2023-05-11T10:15:02;100366.03;;;14.91;70.05
15646;BME280;7922;43.622;1.476;2023-05-11T10:17:28;100363.13;;;14.96;70.34
15646;BME280;7922;43.622;1.476;2023-05-11T10:19:54;100327.50;;;14.97;69.24
15646;BME280;7922;43.622;1.476;2023-05-11T10:22:20;100324.94;;;15.27;68.43
15646;BME280;7922;43.622;1.476;2023-05-11T10:24:46;100346.00;;;15.79;66.98
15646;BME280;7922;43.622;1.476;2023-05-11T10:27:12;100301.06;;;16.01;64.26
15646;BME280;7922;43.622;1.476;2023-05-11T10:29:38;100315.50;;;16.13;62.60
15646;BME280;7922;43.622;1.476;2023-05-11T10:32:05;100354.59;;;16.58;59.85
15646;BME280;7922;43.622;1.476;2023-05-11T10:34:32;100332.50;;;16.41;59.13
15646;BME280;7922;43.622;1.476;2023-05-11T10:36:59;100357.28;;;17.16;57.64
15646;BME280;7922;43.622;1.476;2023-05-11T10:39:25;100330.06;;;17.09;58.41
15646;BME280;7922;43.622;1.476;2023-05-11T10:42:02;100324.72;;;16.95;56.79
15646;BME280;7922;43.622;1.476;2023-05-11T10:48:10;100349.16;;;17.03;55.76
15646;BME280;7922;43.622;1.476;2023-05-11T10:50:49;100304.19;;;16.81;55.28
15646;BME280;7922;43.622;1.476;2023-05-11T11:01:37;100342.13;;;16.88;59.51
15646;BME280;7922;43.622;1.476;2023-05-11T11:04:05;100325.06;;;17.59;57.79
15646;BME280;7922;43.622;1.476;2023-05-11T11:06:31;100322.22;;;17.47;56.29
15646;BME280;7922;43.622;1.476;2023-05-11T11:14:22;100250.25;;;17.55;52.76
15646;BME280;7922;43.622;1.476;2023-05-11T11:19:40;100246.59;;;17.96;51.82
15646;BME280;7922;43.622;1.476;2023-05-11T11:25:12;100316.38;;;17.14;55.75
15646;BME280;7922;43.622;1.476;2023-05-11T11:30:19;100311.84;;;17.55;57.55
15646;BME280;7922;43.622;1.476;2023-05-11T11:32:49;100251.84;;;17.18;56.61
15646;BME280;7922;43.622;1.476;2023-05-11T11:38:15;100210.41;;;17.24;55.24
15646;BME280;7922;43.622;1.476;2023-05-11T11:40:42;100284.91;;;17.98;54.37
15646;BME280;7922;43.622;1.476;2023-05-11T11:43:24;100226.47;;;17.64;54.73
15646;BME280;7922;43.622;1.476;2023-05-11T11:45:54;100300.19;;;17.29;55.08
15646;BME280;7922;43.622;1.476;2023-05-11T11:48:40;100310.41;;;16.96;57.78
15646;BME280;7922;43.622;1.476;2023-05-11T11:51:10;100247.41;;;16.61;58.66
15646;BME280;7922;43.622;1.476;2023-05-11T11:56:01;100280.13;;;17.49;56.62
15646;BME280;7922;43.622;1.476;2023-05-11T11:58:56;100287.75;;;17.83;49.74
15646;BME280;7922;43.622;1.476;2023-05-11T12:01:24;100256.06;;;17.75;49.65
15646;BME280;7922;43.622;1.476;2023-05-11T12:06:37;100252.09;;;18.46;53.05
15646;BME280;7922;43.622;1.476;2023-05-11T12:09:03;100216.38;;;18.07;54.91
15646;BME280;7922;43.622;1.476;2023-05-11T12:11:29;100271.16;;;18.03;55.95
15646;BME280;7922;43.622;1.476;2023-05-11T12:13:54;100277.38;;;17.64;52.82
15646;BME280;7922;43.622;1.476;2023-05-11T12:16:20;100257.75;;;17.23;50.36
15646;BME280;7922;43.622;1.476;2023-05-11T12:18:58;100215.53;;;17.14;50.64
15646;BME280;7922;43.622;1.476;2023-05-11T12:21:25;100262.16;;;18.29;51.16
15646;BME280;7922;43.622;1.476;2023-05-11T12:26:19;100211.03;;;17.67;51.95
15646;BME280;7922;43.622;1.476;2023-05-11T12:28:44;100237.84;;;17.27;54.27
15646;BME280;7922;43.622;1.476;2023-05-11T12:31:09;100279.66;;;16.74;55.65
15646;BME280;7922;43.622;1.476;2023-05-11T12:33:44;100174.69;;;16.13;55.33
15646;BME280;7922;43.622;1.476;2023-05-11T12:36:13;100268.41;;;17.11;55.46
15646;BME280;7922;43.622;1.476;2023-05-11T12:38:46;100249.34;;;17.42;56.79
15646;BME280;7922;43.622;1.476;2023-05-11T12:41:18;100273.53;;;18.46;53.90
15646;BME280;7922;43.622;1.476;2023-05-11T12:43:44;100203.59;;;18.49;51.59
15646;BME280;7922;43.622;1.476;2023-05-11T12:46:10;100257.88;;;19.02;50.79
15646;BME280;7922;43.622;1.476;2023-05-11T12:48:35;100214.50;;;18.71;50.24
15646;BME280;7922;43.622;1.476;2023-05-11T12:51:01;100281.56;;;18.84;50.39
15646;BME280;7922;43.622;1.476;2023-05-11T12:53:26;100244.81;;;17.70;51.72
15646;BME280;7922;43.622;1.476;2023-05-11T12:55:58;100264.25;;;17.46;52.85
15646;BME280;7922;43.622;1.476;2023-05-11T12:58:23;100222.56;;;17.42;50.99
15646;BME280;7922;43.622;1.476;2023-05-11T13:00:53;100248.22;;;17.59;50.07
15646;BME280;7922;43.622;1.476;2023-05-11T13:03:32;100250.13;;;17.97;49.05
15646;BME280;7922;43.622;1.476;2023-05-11T13:08:29;100271.00;;;17.79;48.76
15646;BME280;7922;43.622;1.476;2023-05-11T13:10:54;100274.81;;;18.02;48.33
15646;BME280;7922;43.622;1.476;2023-05-11T13:13:26;100276.38;;;17.79;48.49
15646;BME280;7922;43.622;1.476;2023-05-11T13:15:52;100266.00;;;17.87;48.49
15646;BME280;7922;43.622;1.476;2023-05-11T13:18:17;100218.31;;;18.18;48.75
15646;BME280;7922;43.622;1.476;2023-05-11T13:20:42;100259.47;;;18.29;49.45
15646;BME280;7922;43.622;1.476;2023-05-11T13:23:10;100195.78;;;17.42;50.99
15646;BME280;7922;43.622;1.476;2023-05-11T13:28:10;100240.38;;;17.96;51.66
15646;BME280;7922;43.622;1.476;2023-05-11T13:30:36;100157.34;;;17.56;51.29
15646;BME280;7922;43.622;1.476;2023-05-11T13:33:02;100174.09;;;18.36;50.28
15646;BME280;7922;43.622;1.476;2023-05-11T13:35:27;100187.78;;;18.57;47.57
15646;BME280;7922;43.622;1.476;2023-05-11T13:37:52;100212.69;;;18.46;48.62
15646;BME280;7922;43.622;1.476;2023-05-11T13:40:17;100245.94;;;17.80;50.93
15646;BME280;7922;43.622;1.476;2023-05-11T13:42:43;100243.22;;;16.29;52.40
15646;BME280;7922;43.622;1.476;2023-05-11T13:45:08;100246.69;;;15.86;54.36
15646;BME280;7922;43.622;1.476;2023-05-11T13:47:34;100209.88;;;15.47;54.31
15646;BME280;7922;43.622;1.476;2023-05-11T13:49:59;100233.91;;;15.31;53.97
15646;BME280;7922;43.622;1.476;2023-05-11T13:52:24;100192.63;;;15.07;54.68
15646;BME280;7922;43.622;1.476;2023-05-11T13:54:49;100265.72;;;15.04;55.01
15646;BME280;7922;43.622;1.476;2023-05-11T13:57:15;100258.78;;;15.32;55.88